createdAt,value
2023-09-17T00:00:28.095Z,19.39
2023-09-17T00:01:30.175Z,19.37
2023-09-17T00:02:33.085Z,19.37
2023-09-17T00:03:35.312Z,19.35
2023-09-17T00:04:37.448Z,19.36
2023-09-17T00:05:39.380Z,19.35
2023-09-17T00:06:42.367Z,19.34
2023-09-17T00:07:44.763Z,19.33
2023-09-17T00:08:46.757Z,19.33
2023-09-17T00:09:48.687Z,19.33
2023-09-17T00:10:50.758Z,19.33
2023-09-17T00:11:52.794Z,19.32
2023-09-17T00:12:59.198Z,19.31
2023-09-17T00:14:01.350Z,19.29
2023-09-17T00:15:04.082Z,19.29
2023-09-17T00:16:06.639Z,19.28
2023-09-17T00:17:08.874Z,19.25
2023-09-17T00:18:11.194Z,19.24
2023-09-17T00:19:14.265Z,19.21
2023-09-17T00:20:17.086Z,19.19
2023-09-17T00:21:19.017Z,19.17
2023-09-17T00:22:21.484Z,19.15
2023-09-17T00:23:23.586Z,19.15
2023-09-17T00:24:26.539Z,19.12
2023-09-17T00:25:29.666Z,19.12
2023-09-17T00:26:31.889Z,19.11
2023-09-17T00:27:34.676Z,19.10
2023-09-17T00:28:37.189Z,19.09
2023-09-17T00:29:39.602Z,19.07
2023-09-17T00:30:41.620Z,19.05
2023-09-17T00:31:44.359Z,19.02
2023-09-17T00:32:47.061Z,18.97
2023-09-17T00:33:49.380Z,18.97
2023-09-17T00:34:51.446Z,18.94
2023-09-17T00:35:53.345Z,18.93
2023-09-17T00:36:55.205Z,18.92
2023-09-17T00:37:57.158Z,18.92
2023-09-17T00:38:59.041Z,18.91
2023-09-17T00:40:00.928Z,18.91
2023-09-17T00:41:02.903Z,18.89
2023-09-17T00:42:05.217Z,18.86
2023-09-17T00:43:07.921Z,18.86
2023-09-17T00:44:10.128Z,18.84
2023-09-17T00:45:13.316Z,18.81
2023-09-17T00:46:15.704Z,18.79
2023-09-17T00:47:18.099Z,18.77
2023-09-17T00:48:21.099Z,18.77
2023-09-17T00:49:23.977Z,18.75
2023-09-17T00:50:26.674Z,18.74
2023-09-17T00:51:28.928Z,18.73
2023-09-17T00:52:34.411Z,18.73
2023-09-17T00:53:37.105Z,18.73
2023-09-17T00:54:39.420Z,18.73
2023-09-17T00:55:41.934Z,18.72
2023-09-17T00:56:44.425Z,18.71
2023-09-17T00:57:46.866Z,18.71
2023-09-17T00:58:51.632Z,18.72
2023-09-17T00:59:53.826Z,18.70
2023-09-17T01:00:59.359Z,18.71
2023-09-17T01:02:02.966Z,18.69
2023-09-17T01:03:07.959Z,18.71
2023-09-17T01:04:10.338Z,18.73
2023-09-17T01:05:12.450Z,18.73
2023-09-17T01:06:14.631Z,18.73
2023-09-17T01:07:21.743Z,18.73
2023-09-17T01:08:26.364Z,18.73
2023-09-17T01:09:30.892Z,18.72
2023-09-17T01:10:40.879Z,18.73
2023-09-17T01:11:43.785Z,18.73
2023-09-17T01:12:46.970Z,18.74
2023-09-17T01:13:52.911Z,18.74
2023-09-17T01:14:55.983Z,18.75
2023-09-17T01:16:00.452Z,18.76
2023-09-17T01:17:06.889Z,18.76
2023-09-17T01:18:11.757Z,18.76
2023-09-17T01:19:34.786Z,18.77
2023-09-17T01:21:02.748Z,18.77
2023-09-17T01:22:14.122Z,18.77
2023-09-17T01:24:14.286Z,18.76
2023-09-17T01:25:59.380Z,18.75
2023-09-17T01:27:06.924Z,18.76
2023-09-17T01:28:15.306Z,18.76
2023-09-17T01:29:24.804Z,18.78
2023-09-17T01:30:26.794Z,18.77
2023-09-17T01:31:29.115Z,18.75
2023-09-17T01:32:31.871Z,18.74
2023-09-17T01:33:35.724Z,18.74
2023-09-17T01:34:42.865Z,18.74
2023-09-17T01:36:15.076Z,18.72
2023-09-17T01:37:40.552Z,18.72
2023-09-17T01:38:53.442Z,18.72
2023-09-17T01:40:06.391Z,18.72
2023-09-17T01:41:10.134Z,18.70
2023-09-17T01:42:15.213Z,18.68
2023-09-17T01:43:20.644Z,18.65
2023-09-17T01:44:25.371Z,18.63
2023-09-17T01:45:30.371Z,18.61
2023-09-17T01:46:36.244Z,18.60
2023-09-17T01:47:39.873Z,18.58
2023-09-17T01:48:43.903Z,18.58
2023-09-17T01:49:47.553Z,18.57
2023-09-17T01:50:51.417Z,18.55
2023-09-17T01:51:57.212Z,18.54
2023-09-17T01:53:01.076Z,18.52
2023-09-17T01:54:03.144Z,18.49
2023-09-17T01:55:05.988Z,18.48
2023-09-17T01:56:07.919Z,18.46
2023-09-17T01:57:10.624Z,18.44
2023-09-17T01:58:12.644Z,18.43
2023-09-17T01:59:15.842Z,18.42
2023-09-17T02:00:20.483Z,18.41
2023-09-17T02:01:23.149Z,18.39
2023-09-17T02:02:25.875Z,18.36
2023-09-17T02:03:30.258Z,18.33
2023-09-17T02:04:32.373Z,18.32
2023-09-17T02:05:34.307Z,18.30
2023-09-17T02:06:37.469Z,18.28
2023-09-17T02:07:39.701Z,18.26
2023-09-17T02:08:42.586Z,18.25
2023-09-17T02:09:45.698Z,18.26
2023-09-17T02:10:47.678Z,18.23
2023-09-17T02:11:51.294Z,18.22
2023-09-17T02:12:53.274Z,18.20
2023-09-17T02:13:55.367Z,18.19
2023-09-17T02:14:57.297Z,18.16
2023-09-17T02:15:59.302Z,18.17
2023-09-17T02:17:01.230Z,18.14
2023-09-17T02:18:04.502Z,18.14
2023-09-17T02:19:06.373Z,18.13
2023-09-17T02:20:12.313Z,18.12
2023-09-17T02:21:14.357Z,18.13
2023-09-17T02:22:16.318Z,18.13
2023-09-17T02:23:18.353Z,18.12
2023-09-17T02:24:21.138Z,18.11
2023-09-17T02:25:23.153Z,18.11
2023-09-17T02:26:25.117Z,18.12
2023-09-17T02:27:26.966Z,18.10
2023-09-17T02:28:28.982Z,18.09
2023-09-17T02:29:30.972Z,18.12
2023-09-17T02:30:32.980Z,18.10
2023-09-17T02:31:34.961Z,18.10
2023-09-17T02:32:38.691Z,18.10
2023-09-17T02:33:42.133Z,18.09
2023-09-17T02:34:44.066Z,18.08
2023-09-17T02:35:46.024Z,18.07
2023-09-17T02:36:47.977Z,18.07
2023-09-17T02:37:51.117Z,18.05
2023-09-17T02:38:53.377Z,18.05
2023-09-17T02:39:55.255Z,18.04
2023-09-17T02:40:57.230Z,18.02
2023-09-17T02:42:00.313Z,18.01
2023-09-17T02:43:02.800Z,17.98
2023-09-17T02:44:05.027Z,17.98
2023-09-17T02:45:10.107Z,17.97
2023-09-17T02:46:12.479Z,17.94
2023-09-17T02:47:14.446Z,17.93
2023-09-17T02:48:16.871Z,17.93
2023-09-17T02:49:22.713Z,17.93
2023-09-17T02:50:24.723Z,17.94
2023-09-17T02:51:28.705Z,17.93
2023-09-17T02:52:30.798Z,17.93
2023-09-17T02:53:32.730Z,17.93
2023-09-17T02:54:35.745Z,17.93
2023-09-17T02:55:37.728Z,17.94
2023-09-17T02:56:39.602Z,17.95
2023-09-17T02:57:41.496Z,17.97
2023-09-17T02:58:43.472Z,17.97
2023-09-17T02:59:45.509Z,17.98
2023-09-17T03:00:47.560Z,17.98
2023-09-17T03:01:49.619Z,17.97
2023-09-17T03:02:55.437Z,17.98
2023-09-17T03:03:57.828Z,17.95
2023-09-17T03:05:00.881Z,17.93
2023-09-17T03:06:06.618Z,17.93
2023-09-17T03:07:08.735Z,17.91
2023-09-17T03:08:10.822Z,17.88
2023-09-17T03:09:15.162Z,17.87
2023-09-17T03:10:19.965Z,17.84
2023-09-17T03:11:22.337Z,17.82
2023-09-17T03:12:24.268Z,17.80
2023-09-17T03:13:26.238Z,17.79
2023-09-17T03:14:28.165Z,17.77
2023-09-17T03:15:30.351Z,17.77
2023-09-17T03:16:32.465Z,17.77
2023-09-17T03:17:38.530Z,17.77
2023-09-17T03:18:40.845Z,17.76
2023-09-17T03:19:43.587Z,17.75
2023-09-17T03:20:45.553Z,17.70
2023-09-17T03:21:47.542Z,17.68
2023-09-17T03:22:50.259Z,17.66
2023-09-17T03:23:53.519Z,17.65
2023-09-17T03:25:03.299Z,17.63
2023-09-17T03:26:10.753Z,17.60
2023-09-17T03:27:12.721Z,17.57
2023-09-17T03:28:14.769Z,17.55
2023-09-17T03:29:17.716Z,17.54
2023-09-17T03:30:19.872Z,17.53
2023-09-17T03:31:21.850Z,17.52
2023-09-17T03:32:24.634Z,17.50
2023-09-17T03:33:27.538Z,17.48
2023-09-17T03:34:29.685Z,17.47
2023-09-17T03:35:31.801Z,17.45
2023-09-17T03:36:36.494Z,17.46
2023-09-17T03:37:38.488Z,17.43
2023-09-17T03:38:40.797Z,17.43
2023-09-17T03:40:09.028Z,17.42
2023-09-17T03:41:12.089Z,17.42
2023-09-17T03:42:15.044Z,17.41
2023-09-17T03:43:18.196Z,17.41
2023-09-17T03:44:21.832Z,17.40
2023-09-17T03:45:25.171Z,17.40
2023-09-17T03:46:28.392Z,17.38
2023-09-17T03:47:31.511Z,17.39
2023-09-17T03:48:34.591Z,17.37
2023-09-17T03:49:39.489Z,17.36
2023-09-17T03:50:43.837Z,17.37
2023-09-17T03:51:46.376Z,17.35
2023-09-17T03:52:55.126Z,17.33
2023-09-17T03:53:57.852Z,17.31
2023-09-17T03:55:00.121Z,17.31
2023-09-17T03:56:02.202Z,17.29
2023-09-17T03:57:06.000Z,17.28
2023-09-17T03:58:10.245Z,17.27
2023-09-17T03:59:15.813Z,17.26
2023-09-17T04:00:19.091Z,17.26
2023-09-17T04:01:22.058Z,17.24
2023-09-17T04:02:24.399Z,17.20
2023-09-17T04:03:26.643Z,17.16
2023-09-17T04:04:30.160Z,17.16
2023-09-17T04:05:32.238Z,17.15
2023-09-17T04:06:35.670Z,17.14
2023-09-17T04:07:40.556Z,17.12
2023-09-17T04:08:42.474Z,17.08
2023-09-17T04:09:44.353Z,17.04
2023-09-17T04:10:46.396Z,17.02
2023-09-17T04:11:48.362Z,16.99
2023-09-17T04:12:50.345Z,16.97
2023-09-17T04:13:52.434Z,16.94
2023-09-17T04:14:54.560Z,16.93
2023-09-17T04:15:56.458Z,16.91
2023-09-17T04:17:06.007Z,16.92
2023-09-17T04:18:08.126Z,16.88
2023-09-17T04:19:11.081Z,16.88
2023-09-17T04:20:20.105Z,16.88
2023-09-17T04:21:22.263Z,16.89
2023-09-17T04:22:24.905Z,16.90
2023-09-17T04:23:27.059Z,16.92
2023-09-17T04:24:29.816Z,16.92
2023-09-17T04:25:33.407Z,16.94
2023-09-17T04:26:35.833Z,16.95
2023-09-17T04:27:42.806Z,16.96
2023-09-17T04:28:47.310Z,16.99
2023-09-17T04:29:49.368Z,16.98
2023-09-17T04:30:51.291Z,16.97
2023-09-17T04:31:53.228Z,16.95
2023-09-17T04:32:56.281Z,16.94
2023-09-17T04:33:58.890Z,16.95
2023-09-17T04:35:01.059Z,16.93
2023-09-17T04:36:04.583Z,16.92
2023-09-17T04:37:08.086Z,16.92
2023-09-17T04:38:11.284Z,16.90
2023-09-17T04:39:15.211Z,16.87
2023-09-17T04:40:19.197Z,16.89
2023-09-17T04:41:21.568Z,16.91
2023-09-17T04:42:23.454Z,16.91
2023-09-17T04:43:27.406Z,16.94
2023-09-17T04:44:29.555Z,16.95
2023-09-17T04:45:39.874Z,16.96
2023-09-17T04:47:05.092Z,16.97
2023-09-17T04:48:07.776Z,16.99
2023-09-17T04:49:11.110Z,16.99
2023-09-17T04:50:13.828Z,16.97
2023-09-17T04:51:17.822Z,16.97
2023-09-17T04:52:20.252Z,16.97
2023-09-17T04:53:22.149Z,16.97
2023-09-17T04:54:25.212Z,16.97
2023-09-17T04:55:27.618Z,16.97
2023-09-17T04:56:33.602Z,16.96
2023-09-17T04:57:37.117Z,16.96
2023-09-17T04:58:40.056Z,16.98
2023-09-17T04:59:42.136Z,16.99
2023-09-17T05:00:45.728Z,17.01
2023-09-17T05:01:49.927Z,17.01
2023-09-17T05:02:52.020Z,17.04
2023-09-17T05:03:56.038Z,17.02
2023-09-17T05:04:58.326Z,17.05
2023-09-17T05:06:00.206Z,17.05
2023-09-17T05:07:04.645Z,17.07
2023-09-17T05:08:06.737Z,17.06
2023-09-17T05:09:09.433Z,17.06
2023-09-17T05:10:11.334Z,17.08
2023-09-17T05:11:13.475Z,17.10
2023-09-17T05:12:15.610Z,17.10
2023-09-17T05:13:18.772Z,17.12
2023-09-17T05:14:22.393Z,17.14
2023-09-17T05:15:26.680Z,17.14
2023-09-17T05:16:31.400Z,17.15
2023-09-17T05:17:35.670Z,17.18
2023-09-17T05:18:38.677Z,17.16
2023-09-17T05:19:40.609Z,17.18
2023-09-17T05:20:45.505Z,17.18
2023-09-17T05:21:47.695Z,17.18
2023-09-17T05:22:49.812Z,17.18
2023-09-17T05:23:52.111Z,17.19
2023-09-17T05:24:54.618Z,17.21
2023-09-17T05:25:57.540Z,17.20
2023-09-17T05:27:02.127Z,17.21
2023-09-17T05:28:07.851Z,17.23
2023-09-17T05:29:13.556Z,17.25
2023-09-17T05:30:15.573Z,17.24
2023-09-17T05:31:17.640Z,17.26
2023-09-17T05:32:19.616Z,17.28
2023-09-17T05:33:21.555Z,17.30
2023-09-17T05:34:23.815Z,17.30
2023-09-17T05:35:25.990Z,17.33
2023-09-17T05:36:28.037Z,17.35
2023-09-17T05:37:30.936Z,17.35
2023-09-17T05:38:35.327Z,17.37
2023-09-17T05:39:38.783Z,17.41
2023-09-17T05:40:41.221Z,17.43
2023-09-17T05:41:44.112Z,17.48
2023-09-17T05:42:47.544Z,17.52
2023-09-17T05:43:51.210Z,17.56
2023-09-17T05:44:54.563Z,17.57
2023-09-17T05:45:57.964Z,17.58
2023-09-17T05:47:06.608Z,17.58
2023-09-17T05:48:08.739Z,17.61
2023-09-17T05:49:12.019Z,17.59
2023-09-17T05:50:15.211Z,17.61
2023-09-17T05:51:19.148Z,17.59
2023-09-17T05:52:22.353Z,17.57
2023-09-17T05:53:24.265Z,17.57
2023-09-17T05:54:26.493Z,17.56
2023-09-17T05:55:30.058Z,17.58
2023-09-17T05:56:32.667Z,17.58
2023-09-17T05:57:35.235Z,17.58
2023-09-17T05:58:39.664Z,17.60
2023-09-17T05:59:43.519Z,17.60
2023-09-17T06:00:45.469Z,17.60
2023-09-17T06:01:47.615Z,17.61
2023-09-17T06:02:49.663Z,17.63
2023-09-17T06:03:53.121Z,17.65
2023-09-17T06:04:56.031Z,17.66
2023-09-17T06:05:58.766Z,17.68
2023-09-17T06:07:00.938Z,17.69
2023-09-17T06:08:03.210Z,17.72
2023-09-17T06:09:06.122Z,17.75
2023-09-17T06:10:09.061Z,17.79
2023-09-17T06:11:12.567Z,17.82
2023-09-17T06:12:16.475Z,17.87
2023-09-17T06:13:19.430Z,17.89
2023-09-17T06:14:21.446Z,17.90
2023-09-17T06:15:23.317Z,17.91
2023-09-17T06:16:25.224Z,17.94
2023-09-17T06:17:27.390Z,17.96
2023-09-17T06:18:33.397Z,18.00
2023-09-17T06:19:38.501Z,18.03
2023-09-17T06:20:40.773Z,18.05
2023-09-17T06:21:44.618Z,18.09
2023-09-17T06:22:48.391Z,18.12
2023-09-17T06:23:50.732Z,18.15
2023-09-17T06:24:53.224Z,18.17
2023-09-17T06:25:55.254Z,18.20
2023-09-17T06:26:57.185Z,18.22
2023-09-17T06:27:59.064Z,18.25
2023-09-17T06:29:01.327Z,18.28
2023-09-17T06:30:03.760Z,18.31
2023-09-17T06:31:08.631Z,18.34
2023-09-17T06:32:11.870Z,18.36
2023-09-17T06:33:13.919Z,18.39
2023-09-17T06:34:16.105Z,18.43
2023-09-17T06:35:18.640Z,18.46
2023-09-17T06:36:22.589Z,18.50
2023-09-17T06:37:24.840Z,18.53
2023-09-17T06:38:27.375Z,18.55
2023-09-17T06:39:29.794Z,18.56
2023-09-17T06:40:31.911Z,18.61
2023-09-17T06:41:37.377Z,18.64
2023-09-17T06:42:41.431Z,18.66
2023-09-17T06:43:44.501Z,18.70
2023-09-17T06:44:46.574Z,18.73
2023-09-17T06:45:48.516Z,18.76
2023-09-17T06:46:51.822Z,18.79
2023-09-17T06:47:53.969Z,18.83
2023-09-17T06:48:56.237Z,18.86
2023-09-17T06:49:58.232Z,18.90
2023-09-17T06:51:00.273Z,18.93
2023-09-17T06:52:02.179Z,18.96
2023-09-17T06:53:05.382Z,19.00
2023-09-17T06:54:07.681Z,19.05
2023-09-17T06:55:10.530Z,19.08
2023-09-17T06:56:16.966Z,19.09
2023-09-17T06:57:19.010Z,19.13
2023-09-17T06:58:20.997Z,19.17
2023-09-17T06:59:22.955Z,19.20
2023-09-17T07:00:24.823Z,19.22
2023-09-17T07:01:26.907Z,19.27
2023-09-17T07:02:28.888Z,19.29
2023-09-17T07:03:31.449Z,19.36
2023-09-17T07:04:33.488Z,19.36
2023-09-17T07:05:35.429Z,19.38
2023-09-17T07:06:37.414Z,19.43
2023-09-17T07:07:39.406Z,19.45
2023-09-17T07:08:41.525Z,19.48
2023-09-17T07:09:44.226Z,19.49
2023-09-17T07:10:46.226Z,19.51
2023-09-17T07:11:48.185Z,19.52
2023-09-17T07:12:51.665Z,19.53
2023-09-17T07:13:54.920Z,19.54
2023-09-17T07:14:57.969Z,19.58
2023-09-17T07:16:00.276Z,19.61
2023-09-17T07:17:02.316Z,19.67
2023-09-17T07:18:05.117Z,19.73
2023-09-17T07:19:07.081Z,19.80
2023-09-17T07:20:09.893Z,19.86
2023-09-17T07:21:12.051Z,19.92
2023-09-17T07:22:16.040Z,19.97
2023-09-17T07:23:18.312Z,20.02
2023-09-17T07:24:20.224Z,20.05
2023-09-17T07:25:22.319Z,20.08
2023-09-17T07:26:24.781Z,20.13
2023-09-17T07:27:31.828Z,20.19
2023-09-17T07:28:34.099Z,20.22
2023-09-17T07:29:36.065Z,20.26
2023-09-17T07:30:38.235Z,20.29
2023-09-17T07:31:43.028Z,20.31
2023-09-17T07:32:45.147Z,20.35
2023-09-17T07:33:47.221Z,20.37
2023-09-17T07:34:49.281Z,20.39
2023-09-17T07:35:51.457Z,20.42
2023-09-17T07:36:54.265Z,20.46
2023-09-17T07:37:56.507Z,20.52
2023-09-17T07:38:58.397Z,20.57
2023-09-17T07:40:05.429Z,20.64
2023-09-17T07:41:07.523Z,20.71
2023-09-17T07:42:09.470Z,20.79
2023-09-17T07:43:11.915Z,20.88
2023-09-17T07:44:13.719Z,21.00
2023-09-17T07:45:15.729Z,21.13
2023-09-17T07:46:17.656Z,21.29
2023-09-17T07:47:19.713Z,21.48
2023-09-17T07:48:22.736Z,21.65
2023-09-17T07:49:28.273Z,21.88
2023-09-17T07:50:30.693Z,22.17
2023-09-17T07:51:32.631Z,22.51
2023-09-17T07:52:34.648Z,22.90
2023-09-17T07:53:36.645Z,23.25
2023-09-17T07:54:41.460Z,23.59
2023-09-17T07:55:43.336Z,23.95
2023-09-17T07:56:45.984Z,24.25
2023-09-17T07:57:47.937Z,24.55
2023-09-17T07:58:49.878Z,24.83
2023-09-17T07:59:53.460Z,25.07
2023-09-17T08:00:55.396Z,25.30
2023-09-17T08:01:59.978Z,25.49
2023-09-17T08:03:03.246Z,25.68
2023-09-17T08:04:05.734Z,25.86
2023-09-17T08:05:08.570Z,26.08
2023-09-17T08:06:12.550Z,26.30
2023-09-17T08:07:14.660Z,26.53
2023-09-17T08:08:16.751Z,26.71
2023-09-17T08:09:18.949Z,26.88
2023-09-17T08:10:22.878Z,27.02
2023-09-17T08:11:30.510Z,27.12
2023-09-17T08:12:32.505Z,27.18
2023-09-17T08:13:34.531Z,27.16
2023-09-17T08:14:37.611Z,27.12
2023-09-17T08:15:40.336Z,27.07
2023-09-17T08:16:42.545Z,27.10
2023-09-17T08:17:44.819Z,27.19
2023-09-17T08:18:46.826Z,27.27
2023-09-17T08:19:48.779Z,27.42
2023-09-17T08:20:50.656Z,27.57
2023-09-17T08:21:52.597Z,27.75
2023-09-17T08:22:54.535Z,27.92
2023-09-17T08:23:57.088Z,28.10
2023-09-17T08:24:59.028Z,28.28
2023-09-17T08:26:00.954Z,28.44
2023-09-17T08:27:02.967Z,28.55
2023-09-17T08:28:09.332Z,28.63
2023-09-17T08:29:12.776Z,28.66
2023-09-17T08:30:16.660Z,28.70
2023-09-17T08:31:19.862Z,28.68
2023-09-17T08:32:21.737Z,28.70
2023-09-17T08:33:23.641Z,28.76
2023-09-17T08:34:25.524Z,28.78
2023-09-17T08:35:27.442Z,28.84
2023-09-17T08:36:29.602Z,28.83
2023-09-17T08:37:31.550Z,28.77
2023-09-17T08:38:33.778Z,28.69
2023-09-17T08:39:35.696Z,28.56
2023-09-17T08:40:40.479Z,28.49
2023-09-17T08:41:44.031Z,28.43
2023-09-17T08:42:49.775Z,28.38
2023-09-17T08:43:55.921Z,28.45
2023-09-17T08:45:00.578Z,28.61
2023-09-17T08:46:04.629Z,28.75
2023-09-17T08:47:06.769Z,28.81
2023-09-17T08:48:09.231Z,28.82
2023-09-17T08:49:11.611Z,28.83
2023-09-17T08:50:13.501Z,28.92
2023-09-17T08:51:19.612Z,29.06
2023-09-17T08:52:26.888Z,29.02
2023-09-17T08:53:40.051Z,28.98
2023-09-17T08:54:44.358Z,28.93
2023-09-17T08:55:51.447Z,28.95
2023-09-17T08:56:57.535Z,29.02
2023-09-17T08:58:22.776Z,29.06
2023-09-17T08:59:30.750Z,29.02
2023-09-17T09:00:39.100Z,28.95
2023-09-17T09:01:45.615Z,28.91
2023-09-17T09:03:00.186Z,28.94
2023-09-17T09:04:03.815Z,29.00
2023-09-17T09:05:07.328Z,29.08
2023-09-17T09:06:11.316Z,29.09
2023-09-17T09:07:13.372Z,28.95
2023-09-17T09:08:15.715Z,28.69
2023-09-17T09:09:22.582Z,28.61
2023-09-17T09:10:25.311Z,28.63
2023-09-17T09:11:27.724Z,28.56
2023-09-17T09:12:30.550Z,28.48
2023-09-17T09:13:33.606Z,28.53
2023-09-17T09:14:35.501Z,28.67
2023-09-17T09:15:37.744Z,28.85
2023-09-17T09:16:39.748Z,29.04
2023-09-17T09:17:41.828Z,29.26
2023-09-17T09:18:44.685Z,29.36
2023-09-17T09:19:46.782Z,29.50
2023-09-17T09:20:48.846Z,29.69
2023-09-17T09:21:50.761Z,29.82
2023-09-17T09:22:52.689Z,29.90
2023-09-17T09:23:54.559Z,29.96
2023-09-17T09:24:56.418Z,30.03
2023-09-17T09:25:58.676Z,30.10
2023-09-17T09:27:00.623Z,30.18
2023-09-17T09:28:03.878Z,30.35
2023-09-17T09:29:07.772Z,30.55
2023-09-17T09:30:15.469Z,30.80
2023-09-17T09:31:17.506Z,31.00
2023-09-17T09:32:19.890Z,31.12
2023-09-17T09:33:23.108Z,31.17
2023-09-17T09:34:28.229Z,31.23
2023-09-17T09:35:31.381Z,31.27
2023-09-17T09:36:35.060Z,31.21
2023-09-17T09:37:37.160Z,31.11
2023-09-17T09:38:39.217Z,30.95
2023-09-17T09:39:44.173Z,30.78
2023-09-17T09:40:46.672Z,30.61
2023-09-17T09:41:49.572Z,30.42
2023-09-17T09:42:51.676Z,30.20
2023-09-17T09:43:55.016Z,30.07
2023-09-17T09:44:59.036Z,29.99
2023-09-17T09:46:05.911Z,29.92
2023-09-17T09:47:09.026Z,29.84
2023-09-17T09:48:17.358Z,29.73
2023-09-17T09:49:19.216Z,29.52
2023-09-17T09:50:32.270Z,29.23
2023-09-17T09:51:37.085Z,29.07
2023-09-17T09:52:41.521Z,28.96
2023-09-17T09:53:43.560Z,28.90
2023-09-17T09:54:47.549Z,28.91
2023-09-17T09:55:49.908Z,28.93
2023-09-17T09:56:53.272Z,28.97
2023-09-17T09:57:56.210Z,28.95
2023-09-17T09:59:01.244Z,28.94
2023-09-17T10:00:13.577Z,28.92
2023-09-17T10:01:17.596Z,28.90
2023-09-17T10:02:22.078Z,28.91
2023-09-17T10:03:25.543Z,28.94
2023-09-17T10:04:27.844Z,28.97
2023-09-17T10:05:35.996Z,29.01
2023-09-17T10:06:41.790Z,29.05
2023-09-17T10:07:48.559Z,29.08
2023-09-17T10:08:53.611Z,29.10
2023-09-17T10:09:55.633Z,29.10
2023-09-17T10:10:57.656Z,29.12
2023-09-17T10:12:00.687Z,29.10
2023-09-17T10:13:07.350Z,29.09
2023-09-17T10:14:11.319Z,29.06
2023-09-17T10:15:14.575Z,29.04
2023-09-17T10:16:17.011Z,29.02
2023-09-17T10:17:19.141Z,28.96
2023-09-17T10:18:23.577Z,28.91
2023-09-17T10:19:30.483Z,28.84
2023-09-17T10:20:33.535Z,28.76
2023-09-17T10:21:41.136Z,28.70
2023-09-17T10:22:44.623Z,28.62
2023-09-17T10:23:48.093Z,28.53
2023-09-17T10:24:52.931Z,28.47
2023-09-17T10:26:00.499Z,28.41
2023-09-17T10:27:04.700Z,28.38
2023-09-17T10:28:08.765Z,28.33
2023-09-17T10:29:15.230Z,28.18
2023-09-17T10:30:19.710Z,27.96
2023-09-17T10:31:23.489Z,27.69
2023-09-17T10:32:27.444Z,27.49
2023-09-17T10:33:33.677Z,27.31
2023-09-17T10:34:37.217Z,27.25
2023-09-17T10:35:40.680Z,27.21
2023-09-17T10:36:44.284Z,27.23
2023-09-17T10:37:48.394Z,27.27
2023-09-17T10:38:56.024Z,27.32
2023-09-17T10:39:59.013Z,27.36
2023-09-17T10:41:03.607Z,27.38
2023-09-17T10:42:09.477Z,27.41
2023-09-17T10:43:13.267Z,27.42
2023-09-17T10:44:19.168Z,27.45
2023-09-17T10:45:23.606Z,27.39
2023-09-17T10:46:29.560Z,27.25
2023-09-17T10:47:36.588Z,27.18
2023-09-17T10:48:42.078Z,27.14
2023-09-17T10:49:45.691Z,27.14
2023-09-17T10:50:49.367Z,27.14
2023-09-17T10:51:54.426Z,27.15
2023-09-17T10:52:56.618Z,27.14
2023-09-17T10:53:58.527Z,27.15
2023-09-17T10:55:01.031Z,27.17
2023-09-17T10:56:11.818Z,27.19
2023-09-17T10:57:32.930Z,27.20
2023-09-17T10:58:50.032Z,27.20
2023-09-17T10:59:55.194Z,27.16
2023-09-17T11:01:01.526Z,27.14
2023-09-17T11:02:06.842Z,27.12
2023-09-17T11:03:12.354Z,27.13
2023-09-17T11:04:24.631Z,27.09
2023-09-17T11:05:31.332Z,27.08
2023-09-17T11:06:36.050Z,27.06
2023-09-17T11:07:41.054Z,27.06
2023-09-17T11:08:48.176Z,27.05
2023-09-17T11:09:50.607Z,27.03
2023-09-17T11:10:52.603Z,27.00
2023-09-17T11:11:54.678Z,26.98
2023-09-17T11:12:57.485Z,26.95
2023-09-17T11:14:00.144Z,26.92
2023-09-17T11:15:02.313Z,26.89
2023-09-17T11:16:04.222Z,26.86
2023-09-17T11:17:10.333Z,26.82
2023-09-17T11:18:12.688Z,26.78
2023-09-17T11:19:17.861Z,26.76
2023-09-17T11:20:22.107Z,26.75
2023-09-17T11:21:24.101Z,26.72
2023-09-17T11:22:31.290Z,26.72
2023-09-17T11:23:59.841Z,26.68
2023-09-17T11:25:04.396Z,26.65
2023-09-17T11:26:08.727Z,26.64
2023-09-17T11:27:12.880Z,26.60
2023-09-17T11:28:16.513Z,26.59
2023-09-17T11:29:18.471Z,26.59
2023-09-17T11:30:24.925Z,26.60
2023-09-17T11:31:28.212Z,26.64
2023-09-17T11:32:30.354Z,26.66
2023-09-17T11:33:33.179Z,26.70
2023-09-17T11:34:39.973Z,26.76
2023-09-17T11:35:42.140Z,26.81
2023-09-17T11:36:47.343Z,26.85
2023-09-17T11:37:50.829Z,26.90
2023-09-17T11:38:53.144Z,26.93
2023-09-17T11:39:55.513Z,26.95
2023-09-17T11:41:11.040Z,26.98
2023-09-17T11:42:14.662Z,26.97
2023-09-17T11:43:17.188Z,26.94
2023-09-17T11:44:21.945Z,26.88
2023-09-17T11:45:23.877Z,26.79
2023-09-17T11:46:26.234Z,26.76
2023-09-17T11:47:28.454Z,26.72
2023-09-17T11:48:31.616Z,26.70
2023-09-17T11:49:35.989Z,26.70
2023-09-17T11:50:38.094Z,26.70
2023-09-17T11:51:48.542Z,26.72
2023-09-17T11:53:08.527Z,26.72
2023-09-17T11:54:16.514Z,26.71
2023-09-17T11:55:24.562Z,26.70
2023-09-17T11:56:33.172Z,26.68
2023-09-17T11:57:35.443Z,26.66
2023-09-17T11:58:37.661Z,26.65
2023-09-17T11:59:39.913Z,26.62
2023-09-17T12:00:42.365Z,26.61
2023-09-17T12:01:54.554Z,26.61
2023-09-17T12:02:56.788Z,26.59
2023-09-17T12:04:00.171Z,26.56
2023-09-17T12:05:02.395Z,26.55
2023-09-17T12:06:06.051Z,26.51
2023-09-17T12:07:13.634Z,26.48
2023-09-17T12:08:21.433Z,26.45
2023-09-17T12:09:31.457Z,26.43
2023-09-17T12:10:38.206Z,26.39
2023-09-17T12:11:40.237Z,26.38
2023-09-17T12:12:44.125Z,26.36
2023-09-17T12:13:47.215Z,26.33
2023-09-17T12:14:50.441Z,26.27
2023-09-17T12:15:52.576Z,26.25
2023-09-17T12:16:54.916Z,26.23
2023-09-17T12:17:58.044Z,26.21
2023-09-17T12:19:11.607Z,26.19
2023-09-17T12:20:57.865Z,26.15
2023-09-17T12:22:01.109Z,26.14
2023-09-17T12:23:08.123Z,26.15
2023-09-17T12:24:27.213Z,26.12
2023-09-17T12:25:29.219Z,26.12
2023-09-17T12:27:09.908Z,26.13
2023-09-17T12:28:13.291Z,26.10
2023-09-17T12:29:15.278Z,26.11
2023-09-17T12:30:17.203Z,26.13
2023-09-17T12:31:20.120Z,26.14
2023-09-17T12:32:26.837Z,26.15
2023-09-17T12:33:29.119Z,26.13
2023-09-17T12:34:31.463Z,26.11
2023-09-17T12:35:35.093Z,26.10
2023-09-17T12:36:37.281Z,26.08
2023-09-17T12:37:39.254Z,26.07
2023-09-17T12:38:41.355Z,26.07
2023-09-17T12:39:43.657Z,26.06
2023-09-17T12:40:45.628Z,26.06
2023-09-17T12:41:47.613Z,26.05
2023-09-17T12:42:49.500Z,26.07
2023-09-17T12:43:51.663Z,26.09
2023-09-17T12:44:56.973Z,26.11
2023-09-17T12:45:59.022Z,26.15
2023-09-17T12:47:01.055Z,26.15
2023-09-17T12:48:03.358Z,26.19
2023-09-17T12:49:06.718Z,26.19
2023-09-17T12:50:09.107Z,26.23
2023-09-17T12:51:12.849Z,26.24
2023-09-17T12:52:19.031Z,26.26
2023-09-17T12:53:21.258Z,26.27
2023-09-17T12:54:24.337Z,26.29
2023-09-17T12:55:28.228Z,26.32
2023-09-17T12:56:31.127Z,26.31
2023-09-17T12:57:33.416Z,26.32
2023-09-17T12:58:35.344Z,26.34
2023-09-17T12:59:39.017Z,26.38
2023-09-17T13:00:41.192Z,26.37
2023-09-17T13:01:58.291Z,26.39
2023-09-17T13:03:12.953Z,26.41
2023-09-17T13:04:14.961Z,26.42
2023-09-17T13:05:21.765Z,26.43
2023-09-17T13:06:27.568Z,26.42
2023-09-17T13:07:32.695Z,26.43
2023-09-17T13:08:34.702Z,26.41
2023-09-17T13:09:36.804Z,26.39
2023-09-17T13:10:39.554Z,26.39
2023-09-17T13:11:41.853Z,26.37
2023-09-17T13:12:46.746Z,26.37
2023-09-17T13:13:51.574Z,26.37
2023-09-17T13:14:55.569Z,26.35
2023-09-17T13:15:57.561Z,26.36
2023-09-17T13:17:00.014Z,26.35
2023-09-17T13:18:02.404Z,26.33
2023-09-17T13:19:04.533Z,26.32
2023-09-17T13:20:08.218Z,26.29
2023-09-17T13:21:10.638Z,26.28
2023-09-17T13:22:14.628Z,26.27
2023-09-17T13:23:16.825Z,26.25
2023-09-17T13:24:20.264Z,26.20
2023-09-17T13:25:22.754Z,26.23
2023-09-17T13:26:27.487Z,26.25
2023-09-17T13:27:32.729Z,26.27
2023-09-17T13:28:35.632Z,26.27
2023-09-17T13:29:43.099Z,26.27
2023-09-17T13:30:46.658Z,26.26
2023-09-17T13:31:52.329Z,26.26
2023-09-17T13:32:57.666Z,26.26
2023-09-17T13:34:00.274Z,26.26
2023-09-17T13:35:04.675Z,26.28
2023-09-17T13:36:10.711Z,26.30
2023-09-17T13:37:15.145Z,26.31
2023-09-17T13:38:21.574Z,26.32
2023-09-17T13:39:25.118Z,26.34
2023-09-17T13:40:27.326Z,26.33
2023-09-17T13:41:37.025Z,26.33
2023-09-17T13:42:40.744Z,26.34
2023-09-17T13:43:43.168Z,26.38
2023-09-17T13:44:45.595Z,26.40